createdAt,value
2023-04-10T00:02:51.071Z,88.14
2023-04-10T00:07:08.734Z,88.05
2023-04-10T00:11:27.934Z,88.06
2023-04-10T00:15:45.565Z,88.38
2023-04-10T00:20:04.651Z,88.43
2023-04-10T00:24:22.167Z,88.52
2023-04-10T00:28:40.289Z,88.70
2023-04-10T00:32:58.474Z,88.60
2023-04-10T00:37:16.087Z,88.62
2023-04-10T00:41:33.626Z,88.32
2023-04-10T00:45:51.422Z,88.25
2023-04-10T00:50:09.358Z,88.23
2023-04-10T00:54:27.449Z,88.30
2023-04-10T00:58:45.646Z,88.55
2023-04-10T01:03:04.177Z,88.80
2023-04-10T01:07:39.975Z,88.77
2023-04-10T01:12:32.385Z,88.82
2023-04-10T01:16:58.795Z,88.81
2023-04-10T01:21:17.425Z,89.07
2023-04-10T01:25:52.721Z,89.06
2023-04-10T01:30:16.277Z,89.11
2023-04-10T01:34:44.107Z,89.20
2023-04-10T01:39:02.689Z,89.28
2023-04-10T01:43:22.674Z,89.36
2023-04-10T01:47:40.416Z,89.63
2023-04-10T01:52:00.702Z,89.90
2023-04-10T01:56:18.412Z,89.85
2023-04-10T02:00:43.624Z,89.96
2023-04-10T02:05:01.758Z,90.16
2023-04-10T02:09:35.997Z,90.26
2023-04-10T02:13:56.636Z,90.33
2023-04-10T02:18:17.183Z,90.33
2023-04-10T02:22:35.046Z,90.41
2023-04-10T02:26:53.841Z,90.51
2023-04-10T02:31:11.819Z,90.62
2023-04-10T02:35:29.532Z,90.57
2023-04-10T02:39:47.261Z,90.86
2023-04-10T02:44:05.003Z,90.93
2023-04-10T02:48:22.794Z,91.03
2023-04-10T02:52:41.989Z,91.13
2023-04-10T02:57:00.591Z,91.19
2023-04-10T03:01:18.155Z,91.24
2023-04-10T03:05:36.062Z,91.12
2023-04-10T03:09:53.579Z,91.08
2023-04-10T03:14:11.698Z,91.07
2023-04-10T03:18:30.074Z,91.25
2023-04-10T03:22:48.573Z,91.38
2023-04-10T03:27:06.514Z,91.47
2023-04-10T03:31:24.642Z,91.58
2023-04-10T03:35:43.071Z,91.62
2023-04-10T03:40:01.131Z,91.61
2023-04-10T03:44:19.107Z,91.67
2023-04-10T03:48:36.804Z,91.66
2023-04-10T03:52:54.347Z,91.61
2023-04-10T03:57:11.966Z,91.70
2023-04-10T04:01:29.574Z,91.81
2023-04-10T04:05:47.332Z,91.82
2023-04-10T04:10:05.551Z,91.94
2023-04-10T04:14:24.348Z,92.03
2023-04-10T04:18:41.878Z,92.10
2023-04-10T04:22:59.536Z,92.07
2023-04-10T04:27:17.131Z,92.09
2023-04-10T04:31:34.960Z,92.10
2023-04-10T04:35:52.622Z,92.01
2023-04-10T04:40:11.061Z,91.91
2023-04-10T04:44:28.592Z,91.90
2023-04-10T04:48:46.313Z,91.80
2023-04-10T04:53:05.484Z,91.72
2023-04-10T04:57:25.113Z,91.63
2023-04-10T05:01:42.696Z,91.71
2023-04-10T05:06:00.540Z,91.57
2023-04-10T05:10:18.216Z,91.47
2023-04-10T05:14:36.369Z,91.52
2023-04-10T05:18:54.423Z,91.53
2023-04-10T05:23:11.641Z,91.55
2023-04-10T05:27:29.314Z,91.60
2023-04-10T05:31:47.038Z,91.62
2023-04-10T05:36:05.263Z,91.47
2023-04-10T05:40:22.726Z,91.27
2023-04-10T05:44:40.614Z,90.49
2023-04-10T05:48:58.757Z,90.00
2023-04-10T05:53:18.393Z,89.77
2023-04-10T05:57:36.014Z,89.60
2023-04-10T06:01:53.410Z,88.70
2023-04-10T06:06:11.212Z,87.80
2023-04-10T06:10:31.208Z,86.31
2023-04-10T06:14:48.851Z,83.73
2023-04-10T06:19:06.897Z,82.05
2023-04-10T06:23:24.644Z,82.48
2023-04-10T06:27:42.252Z,82.16
2023-04-10T06:32:01.129Z,82.73
2023-04-10T06:36:18.850Z,84.35
2023-04-10T06:40:36.755Z,83.77
2023-04-10T06:44:54.271Z,83.21
2023-04-10T06:49:11.966Z,83.27
2023-04-10T06:53:29.795Z,83.36
2023-04-10T06:57:47.640Z,82.84
2023-04-10T07:02:05.670Z,80.53
2023-04-10T07:06:23.844Z,79.81
2023-04-10T07:10:41.497Z,80.00
2023-04-10T07:15:00.239Z,80.78
2023-04-10T07:19:17.799Z,79.87
2023-04-10T07:23:36.279Z,78.38
2023-04-10T07:27:53.779Z,78.05
2023-04-10T07:32:11.886Z,79.93
2023-04-10T07:36:29.686Z,78.55
2023-04-10T07:40:47.522Z,75.30
2023-04-10T07:45:05.891Z,73.77
2023-04-10T07:49:24.083Z,71.58
2023-04-10T07:53:42.147Z,70.66
2023-04-10T07:57:59.635Z,73.01
2023-04-10T08:02:17.355Z,73.64
2023-04-10T08:06:35.030Z,74.11
2023-04-10T08:10:52.566Z,76.10
2023-04-10T08:15:11.149Z,76.21
2023-04-10T08:19:28.671Z,75.70
2023-04-10T08:23:49.314Z,76.74
2023-04-10T08:28:06.800Z,74.17
2023-04-10T08:32:26.954Z,72.95
2023-04-10T08:36:44.522Z,72.57
2023-04-10T08:41:02.433Z,70.66
2023-04-10T08:45:20.034Z,68.45
2023-04-10T08:49:46.235Z,67.06
2023-04-10T08:54:11.020Z,69.26
2023-04-10T08:58:28.766Z,69.88
2023-04-10T09:02:46.511Z,71.55
2023-04-10T09:07:04.156Z,71.80
2023-04-10T09:11:24.830Z,73.12
2023-04-10T09:16:01.466Z,71.56
2023-04-10T09:20:24.129Z,68.61
2023-04-10T09:24:44.994Z,67.91
2023-04-10T09:29:05.740Z,65.21
2023-04-10T09:33:30.424Z,65.82
2023-04-10T09:37:48.172Z,64.67
2023-04-10T09:42:05.780Z,62.82
2023-04-10T09:46:28.984Z,61.09
2023-04-10T09:50:47.048Z,62.21
2023-04-10T09:55:07.788Z,54.15
2023-04-10T09:59:25.681Z,56.34
2023-04-10T10:03:44.332Z,61.54
2023-04-10T10:08:02.059Z,63.52
2023-04-10T10:12:24.856Z,65.24
2023-04-10T10:16:52.956Z,62.09
2023-04-10T10:21:10.709Z,62.56
2023-04-10T10:25:29.092Z,61.40
2023-04-10T10:29:47.988Z,62.18
2023-04-10T10:34:09.484Z,63.15
2023-04-10T10:38:28.505Z,63.61
2023-04-10T10:43:04.627Z,61.71
2023-04-10T10:47:28.980Z,59.34
2023-04-10T10:51:51.976Z,59.35
2023-04-10T10:56:18.608Z,58.53
2023-04-10T11:00:59.230Z,51.61
2023-04-10T11:05:52.591Z,45.85
2023-04-10T11:10:10.185Z,47.50
2023-04-10T11:14:31.429Z,50.59
2023-04-10T11:19:02.852Z,42.04
2023-04-10T11:23:28.093Z,45.15
2023-04-10T11:27:51.908Z,48.69
2023-04-10T11:32:10.729Z,51.92
2023-04-10T11:36:28.701Z,52.70
2023-04-10T11:41:13.918Z,51.60
2023-04-10T11:45:31.509Z,44.85
2023-04-10T11:49:56.134Z,38.98
2023-04-10T11:54:17.027Z,33.86
2023-04-10T11:58:35.540Z,32.60
2023-04-10T12:02:53.477Z,38.77
2023-04-10T12:07:11.886Z,29.96
2023-04-10T12:11:29.889Z,30.67
2023-04-10T12:15:47.760Z,23.47
2023-04-10T12:20:06.514Z,26.10
2023-04-10T12:24:50.546Z,21.44
2023-04-10T12:29:09.462Z,25.51
2023-04-10T12:33:27.291Z,38.94
2023-04-10T12:37:52.882Z,46.92
2023-04-10T12:42:19.703Z,41.52
2023-04-10T12:46:38.396Z,27.99
2023-04-10T12:50:56.172Z,21.36
2023-04-10T12:55:21.793Z,19.91
2023-04-10T12:59:42.617Z,19.88
2023-04-10T13:04:00.898Z,29.69
2023-04-10T13:08:18.483Z,30.29
2023-04-10T13:12:38.498Z,31.30
2023-04-10T13:16:56.104Z,36.57
2023-04-10T13:21:18.718Z,38.41
2023-04-10T13:25:40.506Z,33.88
2023-04-10T13:29:58.175Z,24.27
2023-04-10T13:34:15.954Z,19.84
2023-04-10T13:38:34.393Z,23.22
2023-04-10T13:42:51.992Z,32.64
2023-04-10T13:47:09.812Z,37.45
2023-04-10T13:51:28.053Z,40.06
2023-04-10T13:55:47.995Z,42.96
2023-04-10T14:00:07.618Z,28.64
2023-04-10T14:04:25.415Z,21.99
2023-04-10T14:08:42.983Z,21.87
2023-04-10T14:13:00.703Z,24.40
2023-04-10T14:17:18.236Z,30.15
2023-04-10T14:21:38.281Z,34.68
2023-04-10T14:25:55.818Z,39.52
2023-04-10T14:30:14.178Z,41.50
2023-04-10T14:34:31.678Z,44.50
2023-04-10T14:38:49.616Z,46.25
2023-04-10T14:43:08.152Z,47.80
2023-04-10T14:47:25.924Z,50.47
2023-04-10T14:51:45.146Z,53.62
2023-04-10T14:56:13.432Z,58.95
2023-04-10T15:00:33.566Z,63.82
2023-04-10T15:04:51.156Z,65.01
2023-04-10T15:09:08.857Z,63.99
2023-04-10T15:13:26.687Z,64.01
2023-04-10T15:17:44.677Z,65.53
2023-04-10T15:22:02.170Z,68.50
2023-04-10T15:26:21.533Z,69.15
2023-04-10T15:30:39.133Z,69.60
2023-04-10T15:34:57.091Z,69.98
2023-04-10T15:39:14.604Z,69.38
2023-04-10T15:43:32.159Z,68.93
2023-04-10T15:47:49.838Z,67.78
2023-04-10T15:52:07.824Z,68.33
2023-04-10T15:56:25.515Z,68.71
2023-04-10T16:00:43.433Z,69.10
2023-04-10T16:05:00.696Z,69.39
2023-04-10T16:13:42.229Z,71.63
2023-04-10T16:18:01.895Z,72.35
2023-04-10T16:22:19.516Z,72.06
2023-04-10T16:26:37.288Z,72.69
2023-04-10T16:30:56.301Z,72.84
2023-04-10T16:35:14.431Z,73.27
2023-04-10T16:39:32.376Z,73.69
2023-04-10T16:43:50.190Z,74.13
2023-04-10T16:48:07.929Z,74.68
2023-04-10T16:52:25.750Z,75.35
2023-04-10T16:56:43.511Z,74.90
2023-04-10T17:01:13.095Z,75.27
2023-04-10T17:05:36.791Z,75.00
2023-04-10T17:09:54.314Z,75.29
2023-04-10T17:14:14.582Z,75.20
2023-04-10T17:18:32.662Z,75.77
2023-04-10T17:22:50.402Z,77.04
2023-04-10T17:27:08.103Z,78.11
2023-04-10T17:31:25.852Z,79.58
2023-04-10T17:35:43.795Z,79.77
2023-04-10T17:40:01.688Z,80.77
2023-04-10T17:44:20.203Z,81.20
2023-04-10T17:48:39.248Z,81.44
2023-04-10T17:52:56.958Z,82.09
2023-04-10T17:57:14.745Z,82.80
2023-04-10T18:01:32.968Z,83.02
2023-04-10T18:05:50.823Z,83.70
2023-04-10T18:10:11.319Z,84.35
2023-04-10T18:14:29.111Z,84.60
2023-04-10T18:18:47.098Z,84.76
2023-04-10T18:23:06.686Z,85.36
2023-04-10T18:27:24.448Z,86.35
2023-04-10T18:31:42.371Z,85.75
2023-04-10T18:36:00.157Z,85.55
2023-04-10T18:40:18.237Z,85.50
2023-04-10T18:44:35.841Z,85.06
2023-04-10T18:48:56.305Z,84.06
2023-04-10T18:53:14.260Z,83.85
2023-04-10T18:57:32.132Z,83.86
2023-04-10T19:01:49.844Z,84.26
2023-04-10T19:06:08.894Z,84.29
2023-04-10T19:10:27.048Z,84.46
2023-04-10T19:14:44.946Z,85.05
2023-04-10T19:19:02.811Z,85.49
2023-04-10T19:23:21.642Z,85.87
2023-04-10T19:27:40.588Z,86.32
2023-04-10T19:31:59.242Z,86.46
2023-04-10T19:36:19.111Z,86.74
2023-04-10T19:40:37.785Z,86.83
2023-04-10T19:44:55.452Z,87.01
2023-04-10T19:49:13.645Z,87.16
2023-04-10T19:53:31.190Z,87.03
2023-04-10T19:57:49.960Z,86.89
2023-04-10T20:02:10.609Z,86.95
2023-04-10T20:06:27.784Z,87.03
2023-04-10T20:10:45.477Z,86.91
2023-04-10T20:15:04.652Z,87.12
2023-04-10T20:19:22.355Z,87.15
2023-04-10T20:23:40.163Z,86.97
2023-04-10T20:27:57.685Z,87.13
2023-04-10T20:32:15.401Z,87.32
2023-04-10T20:36:34.709Z,87.56
2023-04-10T20:40:52.843Z,87.50
2023-04-10T20:45:11.176Z,87.62
2023-04-10T20:49:28.875Z,87.74
2023-04-10T20:53:46.388Z,87.47
2023-04-10T20:58:04.126Z,87.44
2023-04-10T21:02:21.831Z,87.10
2023-04-10T21:06:39.627Z,87.10
2023-04-10T21:10:59.754Z,86.75
2023-04-10T21:15:17.412Z,86.76
2023-04-10T21:19:34.974Z,87.01
2023-04-10T21:23:52.863Z,87.25
2023-04-10T21:28:10.682Z,87.39
2023-04-10T21:32:28.364Z,87.63
2023-04-10T21:36:46.160Z,88.05
2023-04-10T21:41:03.852Z,88.08
2023-04-10T21:45:21.635Z,88.04
2023-04-10T21:49:39.154Z,88.14
2023-04-10T21:53:57.128Z,88.29
2023-04-10T21:58:14.640Z,88.31
2023-04-10T22:02:32.454Z,88.50
2023-04-10T22:06:50.251Z,88.52
2023-04-10T22:11:08.813Z,88.44
2023-04-10T22:15:26.387Z,88.65
2023-04-10T22:19:44.117Z,88.56
2023-04-10T22:24:01.745Z,88.41
2023-04-10T22:28:19.418Z,88.63
2023-04-10T22:32:37.125Z,88.79
2023-04-10T22:36:54.768Z,88.80
2023-04-10T22:41:12.380Z,88.80
2023-04-10T22:45:30.074Z,89.03
2023-04-10T22:49:47.677Z,88.97
2023-04-10T22:54:05.450Z,89.05
2023-04-10T22:58:23.352Z,89.22
2023-04-10T23:02:41.175Z,89.11
2023-04-10T23:06:59.161Z,88.96
2023-04-10T23:11:16.785Z,89.01
2023-04-10T23:15:34.872Z,89.52
2023-04-10T23:19:52.262Z,89.77
2023-04-10T23:24:09.917Z,89.84
2023-04-10T23:28:27.951Z,89.66
2023-04-10T23:32:45.585Z,89.72
2023-04-10T23:37:03.190Z,89.82
2023-04-10T23:41:21.834Z,89.93
2023-04-10T23:45:39.512Z,90.12
2023-04-10T23:49:57.807Z,90.16
2023-04-10T23:54:16.022Z,90.06
2023-04-10T23:58:33.643Z,90.09
